sensor_id;sensor_type;location;lat;lon;timestamp;P1;durP1;ratioP1;P2;durP2;ratioP2
40653;SDS011;26344;45.532;9.232;2023-02-11T00:00:07;71.55;;;36.05;;
40653;SDS011;26344;45.532;9.232;2023-02-11T00:05:45;72.53;;;36.38;;
40653;SDS011;26344;45.532;9.232;2023-02-11T00:11:31;68.00;;;35.63;;
40653;SDS011;26344;45.532;9.232;2023-02-11T00:14:01;66.63;;;36.15;;
40653;SDS011;26344;45.532;9.232;2023-02-11T00:16:28;64.10;;;36.53;;
40653;SDS011;26344;45.532;9.232;2023-02-11T00:18:57;72.20;;;36.60;;
40653;SDS011;26344;45.532;9.232;2023-02-11T00:21:29;66.25;;;36.63;;
40653;SDS011;26344;45.532;9.232;2023-02-11T00:27:01;76.10;;;37.83;;
40653;SDS011;26344;45.532;9.232;2023-02-11T00:32:45;74.93;;;37.80;;
40653;SDS011;26344;45.532;9.232;2023-02-11T00:35:43;77.82;;;37.38;;
40653;SDS011;26344;45.532;9.232;2023-02-11T00:38:09;75.25;;;39.30;;
40653;SDS011;26344;45.532;9.232;2023-02-11T00:43:22;76.63;;;38.15;;
40653;SDS011;26344;45.532;9.232;2023-02-11T00:45:48;76.25;;;40.22;;
40653;SDS011;26344;45.532;9.232;2023-02-11T00:48:14;74.35;;;38.88;;
40653;SDS011;26344;45.532;9.232;2023-02-11T00:50:40;69.55;;;39.78;;
40653;SDS011;26344;45.532;9.232;2023-02-11T00:53:06;71.07;;;41.25;;
40653;SDS011;26344;45.532;9.232;2023-02-11T00:55:32;70.50;;;40.17;;
40653;SDS011;26344;45.532;9.232;2023-02-11T00:57:59;83.53;;;41.65;;
40653;SDS011;26344;45.532;9.232;2023-02-11T01:00:25;78.20;;;40.30;;
40653;SDS011;26344;45.532;9.232;2023-02-11T01:02:51;71.18;;;40.05;;
40653;SDS011;26344;45.532;9.232;2023-02-11T01:05:18;79.22;;;41.13;;
40653;SDS011;26344;45.532;9.232;2023-02-11T01:07:44;77.28;;;40.40;;
40653;SDS011;26344;45.532;9.232;2023-02-11T01:10:10;78.32;;;40.33;;
40653;SDS011;26344;45.532;9.232;2023-02-11T01:12:36;76.45;;;39.92;;
40653;SDS011;26344;45.532;9.232;2023-02-11T01:15:03;77.00;;;39.65;;
40653;SDS011;26344;45.532;9.232;2023-02-11T01:17:29;66.78;;;38.63;;
40653;SDS011;26344;45.532;9.232;2023-02-11T01:19:55;70.13;;;39.17;;
40653;SDS011;26344;45.532;9.232;2023-02-11T01:22:21;64.20;;;38.55;;
40653;SDS011;26344;45.532;9.232;2023-02-11T01:24:47;73.18;;;38.92;;
40653;SDS011;26344;45.532;9.232;2023-02-11T01:27:13;72.97;;;37.70;;
40653;SDS011;26344;45.532;9.232;2023-02-11T01:29:39;69.60;;;38.85;;
40653;SDS011;26344;45.532;9.232;2023-02-11T01:32:05;70.20;;;38.63;;
40653;SDS011;26344;45.532;9.232;2023-02-11T01:34:31;73.43;;;37.90;;
40653;SDS011;26344;45.532;9.232;2023-02-11T01:36:57;71.28;;;38.22;;
40653;SDS011;26344;45.532;9.232;2023-02-11T01:39:24;75.65;;;40.25;;
40653;SDS011;26344;45.532;9.232;2023-02-11T01:41:50;70.93;;;38.45;;
40653;SDS011;26344;45.532;9.232;2023-02-11T01:44:27;66.95;;;37.22;;
40653;SDS011;26344;45.532;9.232;2023-02-11T01:46:54;67.45;;;38.13;;
40653;SDS011;26344;45.532;9.232;2023-02-11T01:49:21;66.53;;;36.42;;
40653;SDS011;26344;45.532;9.232;2023-02-11T01:54:19;74.32;;;36.88;;
40653;SDS011;26344;45.532;9.232;2023-02-11T01:57:04;72.45;;;37.35;;
40653;SDS011;26344;45.532;9.232;2023-02-11T01:59:58;70.40;;;36.20;;
40653;SDS011;26344;45.532;9.232;2023-02-11T02:02:38;62.00;;;35.28;;
40653;SDS011;26344;45.532;9.232;2023-02-11T02:07:32;64.38;;;34.97;;
40653;SDS011;26344;45.532;9.232;2023-02-11T02:10:02;66.47;;;35.97;;
40653;SDS011;26344;45.532;9.232;2023-02-11T02:17:42;61.53;;;34.45;;
40653;SDS011;26344;45.532;9.232;2023-02-11T02:23:37;60.75;;;33.78;;
40653;SDS011;26344;45.532;9.232;2023-02-11T02:25:44;59.97;;;33.35;;
40653;SDS011;26344;45.532;9.232;2023-02-11T02:28:24;65.47;;;32.72;;
40653;SDS011;26344;45.532;9.232;2023-02-11T02:33:36;58.55;;;32.45;;
40653;SDS011;26344;45.532;9.232;2023-02-11T02:38:56;59.60;;;33.65;;
40653;SDS011;26344;45.532;9.232;2023-02-11T02:41:25;59.72;;;31.88;;
40653;SDS011;26344;45.532;9.232;2023-02-11T02:43:53;53.85;;;30.88;;
40653;SDS011;26344;45.532;9.232;2023-02-11T02:46:21;52.20;;;30.30;;
40653;SDS011;26344;45.532;9.232;2023-02-11T02:48:48;51.13;;;29.88;;
40653;SDS011;26344;45.532;9.232;2023-02-11T02:53:50;52.13;;;29.90;;
40653;SDS011;26344;45.532;9.232;2023-02-11T02:59:21;54.28;;;28.75;;
40653;SDS011;26344;45.532;9.232;2023-02-11T03:04:20;51.80;;;27.58;;
40653;SDS011;26344;45.532;9.232;2023-02-11T03:09:20;51.45;;;28.23;;
40653;SDS011;26344;45.532;9.232;2023-02-11T03:11:46;49.85;;;27.98;;
40653;SDS011;26344;45.532;9.232;2023-02-11T03:14:13;50.90;;;28.80;;
40653;SDS011;26344;45.532;9.232;2023-02-11T03:16:40;53.63;;;29.85;;
40653;SDS011;26344;45.532;9.232;2023-02-11T03:19:11;51.35;;;28.58;;
40653;SDS011;26344;45.532;9.232;2023-02-11T03:21:38;50.95;;;28.65;;
40653;SDS011;26344;45.532;9.232;2023-02-11T03:24:06;56.53;;;28.70;;
40653;SDS011;26344;45.532;9.232;2023-02-11T03:31:27;52.58;;;27.63;;
40653;SDS011;26344;45.532;9.232;2023-02-11T03:36:21;48.08;;;27.40;;
40653;SDS011;26344;45.532;9.232;2023-02-11T03:38:49;49.33;;;27.23;;
40653;SDS011;26344;45.532;9.232;2023-02-11T03:41:17;49.17;;;28.17;;
40653;SDS011;26344;45.532;9.232;2023-02-11T03:43:49;51.50;;;28.00;;
40653;SDS011;26344;45.532;9.232;2023-02-11T03:46:17;48.53;;;28.05;;
40653;SDS011;26344;45.532;9.232;2023-02-11T03:48:47;48.05;;;27.27;;
40653;SDS011;26344;45.532;9.232;2023-02-11T03:51:14;48.13;;;27.10;;
40653;SDS011;26344;45.532;9.232;2023-02-11T03:53:41;47.38;;;27.50;;
40653;SDS011;26344;45.532;9.232;2023-02-11T03:56:09;52.70;;;28.10;;
40653;SDS011;26344;45.532;9.232;2023-02-11T03:58:37;47.10;;;27.00;;
40653;SDS011;26344;45.532;9.232;2023-02-11T04:01:03;44.95;;;26.00;;
40653;SDS011;26344;45.532;9.232;2023-02-11T04:03:32;45.47;;;26.17;;
40653;SDS011;26344;45.532;9.232;2023-02-11T04:05:58;46.97;;;25.95;;
40653;SDS011;26344;45.532;9.232;2023-02-11T04:08:24;43.38;;;25.42;;
40653;SDS011;26344;45.532;9.232;2023-02-11T04:10:50;49.88;;;27.42;;
40653;SDS011;26344;45.532;9.232;2023-02-11T04:13:16;44.67;;;25.80;;
40653;SDS011;26344;45.532;9.232;2023-02-11T04:15:42;44.08;;;25.38;;
40653;SDS011;26344;45.532;9.232;2023-02-11T04:18:08;49.65;;;26.63;;
40653;SDS011;26344;45.532;9.232;2023-02-11T04:20:34;45.45;;;26.52;;
40653;SDS011;26344;45.532;9.232;2023-02-11T04:23:00;48.42;;;27.00;;
40653;SDS011;26344;45.532;9.232;2023-02-11T04:25:26;47.92;;;25.95;;
40653;SDS011;26344;45.532;9.232;2023-02-11T04:27:52;46.58;;;26.17;;
40653;SDS011;26344;45.532;9.232;2023-02-11T04:30:18;48.50;;;26.17;;
40653;SDS011;26344;45.532;9.232;2023-02-11T04:32:44;47.10;;;25.90;;
40653;SDS011;26344;45.532;9.232;2023-02-11T04:35:10;50.72;;;26.92;;
40653;SDS011;26344;45.532;9.232;2023-02-11T04:37:36;49.15;;;25.90;;
40653;SDS011;26344;45.532;9.232;2023-02-11T04:40:02;46.83;;;27.38;;
40653;SDS011;26344;45.532;9.232;2023-02-11T04:42:28;53.10;;;27.95;;
40653;SDS011;26344;45.532;9.232;2023-02-11T04:44:54;49.35;;;28.23;;
40653;SDS011;26344;45.532;9.232;2023-02-11T04:47:20;48.17;;;26.75;;
40653;SDS011;26344;45.532;9.232;2023-02-11T04:49:46;53.85;;;26.48;;
40653;SDS011;26344;45.532;9.232;2023-02-11T04:52:12;46.15;;;25.70;;
40653;SDS011;26344;45.532;9.232;2023-02-11T04:54:38;48.33;;;26.40;;
40653;SDS011;26344;45.532;9.232;2023-02-11T04:57:04;50.08;;;27.33;;
40653;SDS011;26344;45.532;9.232;2023-02-11T04:59:31;47.22;;;25.70;;
40653;SDS011;26344;45.532;9.232;2023-02-11T05:01:57;49.35;;;27.42;;
40653;SDS011;26344;45.532;9.232;2023-02-11T05:04:23;46.25;;;27.35;;
40653;SDS011;26344;45.532;9.232;2023-02-11T05:06:49;47.38;;;26.73;;
40653;SDS011;26344;45.532;9.232;2023-02-11T05:09:15;50.95;;;27.63;;
40653;SDS011;26344;45.532;9.232;2023-02-11T05:11:42;46.90;;;25.98;;
40653;SDS011;26344;45.532;9.232;2023-02-11T05:14:08;47.30;;;25.55;;
40653;SDS011;26344;45.532;9.232;2023-02-11T05:16:34;48.85;;;25.55;;
40653;SDS011;26344;45.532;9.232;2023-02-11T05:19:00;46.05;;;25.42;;
40653;SDS011;26344;45.532;9.232;2023-02-11T05:21:26;44.42;;;25.17;;
40653;SDS011;26344;45.532;9.232;2023-02-11T05:23:52;43.75;;;24.98;;
40653;SDS011;26344;45.532;9.232;2023-02-11T05:26:18;41.35;;;25.13;;
40653;SDS011;26344;45.532;9.232;2023-02-11T05:28:44;44.42;;;25.52;;
40653;SDS011;26344;45.532;9.232;2023-02-11T05:31:10;48.45;;;26.65;;
40653;SDS011;26344;45.532;9.232;2023-02-11T05:33:38;44.55;;;26.00;;
40653;SDS011;26344;45.532;9.232;2023-02-11T05:36:06;48.80;;;27.10;;
40653;SDS011;26344;45.532;9.232;2023-02-11T05:38:32;55.25;;;28.60;;
40653;SDS011;26344;45.532;9.232;2023-02-11T05:40:58;47.65;;;27.10;;
40653;SDS011;26344;45.532;9.232;2023-02-11T05:43:24;44.10;;;27.02;;
40653;SDS011;26344;45.532;9.232;2023-02-11T05:45:50;48.75;;;29.17;;
40653;SDS011;26344;45.532;9.232;2023-02-11T05:48:16;51.38;;;28.92;;
40653;SDS011;26344;45.532;9.232;2023-02-11T05:50:43;53.00;;;28.95;;
40653;SDS011;26344;45.532;9.232;2023-02-11T05:53:09;47.53;;;28.02;;
40653;SDS011;26344;45.532;9.232;2023-02-11T05:55:35;54.08;;;27.90;;
40653;SDS011;26344;45.532;9.232;2023-02-11T05:58:01;51.72;;;29.08;;
40653;SDS011;26344;45.532;9.232;2023-02-11T06:00:27;56.10;;;28.75;;
40653;SDS011;26344;45.532;9.232;2023-02-11T06:02:53;49.63;;;28.70;;
40653;SDS011;26344;45.532;9.232;2023-02-11T06:05:19;52.60;;;29.33;;
40653;SDS011;26344;45.532;9.232;2023-02-11T06:07:45;52.88;;;29.15;;
40653;SDS011;26344;45.532;9.232;2023-02-11T06:10:11;54.58;;;30.42;;
40653;SDS011;26344;45.532;9.232;2023-02-11T06:12:37;54.80;;;30.30;;
40653;SDS011;26344;45.532;9.232;2023-02-11T06:15:03;56.05;;;30.02;;
40653;SDS011;26344;45.532;9.232;2023-02-11T06:17:30;57.45;;;31.58;;
40653;SDS011;26344;45.532;9.232;2023-02-11T06:19:57;54.22;;;30.88;;
40653;SDS011;26344;45.532;9.232;2023-02-11T06:22:24;61.67;;;31.17;;
40653;SDS011;26344;45.532;9.232;2023-02-11T06:24:50;60.00;;;32.70;;
40653;SDS011;26344;45.532;9.232;2023-02-11T06:27:16;55.83;;;33.10;;
40653;SDS011;26344;45.532;9.232;2023-02-11T06:29:43;64.90;;;35.33;;
40653;SDS011;26344;45.532;9.232;2023-02-11T06:32:09;65.30;;;36.33;;
40653;SDS011;26344;45.532;9.232;2023-02-11T06:34:37;56.10;;;32.88;;
40653;SDS011;26344;45.532;9.232;2023-02-11T06:37:03;61.92;;;32.17;;
40653;SDS011;26344;45.532;9.232;2023-02-11T06:39:29;63.50;;;31.73;;
40653;SDS011;26344;45.532;9.232;2023-02-11T06:41:55;53.83;;;31.38;;
40653;SDS011;26344;45.532;9.232;2023-02-11T06:44:21;55.88;;;30.55;;
40653;SDS011;26344;45.532;9.232;2023-02-11T06:46:47;64.72;;;30.83;;
40653;SDS011;26344;45.532;9.232;2023-02-11T06:49:13;64.32;;;31.15;;
40653;SDS011;26344;45.532;9.232;2023-02-11T06:51:40;57.72;;;31.00;;
40653;SDS011;26344;45.532;9.232;2023-02-11T06:54:06;61.00;;;31.10;;
40653;SDS011;26344;45.532;9.232;2023-02-11T06:56:32;53.78;;;31.88;;
40653;SDS011;26344;45.532;9.232;2023-02-11T06:58:58;51.63;;;30.30;;
40653;SDS011;26344;45.532;9.232;2023-02-11T07:01:25;52.25;;;30.25;;
40653;SDS011;26344;45.532;9.232;2023-02-11T07:03:51;55.42;;;30.02;;
40653;SDS011;26344;45.532;9.232;2023-02-11T07:06:18;47.92;;;28.10;;
40653;SDS011;26344;45.532;9.232;2023-02-11T07:08:45;57.10;;;29.77;;
40653;SDS011;26344;45.532;9.232;2023-02-11T07:11:12;62.85;;;30.58;;
40653;SDS011;26344;45.532;9.232;2023-02-11T07:13:39;56.63;;;29.73;;
40653;SDS011;26344;45.532;9.232;2023-02-11T07:16:09;59.22;;;29.77;;
40653;SDS011;26344;45.532;9.232;2023-02-11T07:18:35;53.30;;;29.77;;
40653;SDS011;26344;45.532;9.232;2023-02-11T07:21:07;52.70;;;28.00;;
40653;SDS011;26344;45.532;9.232;2023-02-11T07:23:34;50.50;;;28.02;;
40653;SDS011;26344;45.532;9.232;2023-02-11T07:26:04;54.80;;;28.15;;
40653;SDS011;26344;45.532;9.232;2023-02-11T07:28:33;55.03;;;27.45;;
40653;SDS011;26344;45.532;9.232;2023-02-11T07:31:04;54.78;;;26.65;;
40653;SDS011;26344;45.532;9.232;2023-02-11T07:33:30;49.33;;;26.45;;
40653;SDS011;26344;45.532;9.232;2023-02-11T07:35:58;51.20;;;27.05;;
40653;SDS011;26344;45.532;9.232;2023-02-11T07:38:24;70.00;;;29.35;;
40653;SDS011;26344;45.532;9.232;2023-02-11T07:40:50;49.13;;;26.45;;
40653;SDS011;26344;45.532;9.232;2023-02-11T07:43:16;59.40;;;27.83;;
40653;SDS011;26344;45.532;9.232;2023-02-11T07:45:42;56.80;;;28.83;;
40653;SDS011;26344;45.532;9.232;2023-02-11T07:48:08;52.17;;;28.10;;
40653;SDS011;26344;45.532;9.232;2023-02-11T07:50:34;46.83;;;26.52;;
40653;SDS011;26344;45.532;9.232;2023-02-11T07:53:01;50.38;;;27.17;;
40653;SDS011;26344;45.532;9.232;2023-02-11T07:55:27;54.92;;;27.17;;
40653;SDS011;26344;45.532;9.232;2023-02-11T07:57:53;56.22;;;27.63;;
40653;SDS011;26344;45.532;9.232;2023-02-11T08:00:19;45.95;;;27.05;;
40653;SDS011;26344;45.532;9.232;2023-02-11T08:02:45;54.10;;;26.15;;
40653;SDS011;26344;45.532;9.232;2023-02-11T08:05:11;63.45;;;30.35;;
40653;SDS011;26344;45.532;9.232;2023-02-11T08:07:37;46.00;;;27.40;;
40653;SDS011;26344;45.532;9.232;2023-02-11T08:10:03;47.38;;;28.67;;
40653;SDS011;26344;45.532;9.232;2023-02-11T08:12:29;56.88;;;28.10;;
40653;SDS011;26344;45.532;9.232;2023-02-11T08:14:55;47.72;;;27.23;;
40653;SDS011;26344;45.532;9.232;2023-02-11T08:17:22;59.22;;;27.13;;
40653;SDS011;26344;45.532;9.232;2023-02-11T08:19:48;50.05;;;26.83;;
40653;SDS011;26344;45.532;9.232;2023-02-11T08:22:14;50.03;;;27.58;;
40653;SDS011;26344;45.532;9.232;2023-02-11T08:24:40;55.40;;;27.00;;
40653;SDS011;26344;45.532;9.232;2023-02-11T08:27:06;53.55;;;27.48;;
40653;SDS011;26344;45.532;9.232;2023-02-11T08:29:32;50.80;;;27.92;;
40653;SDS011;26344;45.532;9.232;2023-02-11T08:31:58;51.92;;;28.58;;
40653;SDS011;26344;45.532;9.232;2023-02-11T08:34:25;46.13;;;25.65;;
40653;SDS011;26344;45.532;9.232;2023-02-11T08:36:51;48.17;;;26.60;;
40653;SDS011;26344;45.532;9.232;2023-02-11T08:39:18;50.38;;;26.33;;
40653;SDS011;26344;45.532;9.232;2023-02-11T08:41:48;47.20;;;27.83;;
40653;SDS011;26344;45.532;9.232;2023-02-11T08:44:15;47.60;;;27.42;;
40653;SDS011;26344;45.532;9.232;2023-02-11T08:46:41;48.70;;;27.08;;
40653;SDS011;26344;45.532;9.232;2023-02-11T08:49:07;45.47;;;27.50;;
40653;SDS011;26344;45.532;9.232;2023-02-11T08:51:37;46.40;;;27.75;;
40653;SDS011;26344;45.532;9.232;2023-02-11T08:54:03;52.92;;;27.45;;
40653;SDS011;26344;45.532;9.232;2023-02-11T08:56:33;51.72;;;26.65;;
40653;SDS011;26344;45.532;9.232;2023-02-11T08:59:03;51.67;;;26.83;;
40653;SDS011;26344;45.532;9.232;2023-02-11T09:01:30;48.22;;;27.90;;
40653;SDS011;26344;45.532;9.232;2023-02-11T09:03:57;45.88;;;26.45;;
40653;SDS011;26344;45.532;9.232;2023-02-11T09:06:23;44.10;;;25.02;;
40653;SDS011;26344;45.532;9.232;2023-02-11T09:08:50;50.63;;;26.05;;
40653;SDS011;26344;45.532;9.232;2023-02-11T09:11:29;44.60;;;25.40;;
40653;SDS011;26344;45.532;9.232;2023-02-11T09:13:56;41.15;;;26.08;;
40653;SDS011;26344;45.532;9.232;2023-02-11T09:16:23;42.85;;;25.02;;
40653;SDS011;26344;45.532;9.232;2023-02-11T09:18:59;46.30;;;25.75;;
40653;SDS011;26344;45.532;9.232;2023-02-11T09:21:26;41.78;;;25.38;;
40653;SDS011;26344;45.532;9.232;2023-02-11T09:23:52;41.92;;;24.70;;
40653;SDS011;26344;45.532;9.232;2023-02-11T09:26:23;46.22;;;25.77;;
40653;SDS011;26344;45.532;9.232;2023-02-11T09:28:49;40.20;;;24.08;;
40653;SDS011;26344;45.532;9.232;2023-02-11T09:31:17;37.83;;;23.10;;
40653;SDS011;26344;45.532;9.232;2023-02-11T09:33:44;40.90;;;24.40;;
40653;SDS011;26344;45.532;9.232;2023-02-11T09:38:39;44.58;;;24.63;;
40653;SDS011;26344;45.532;9.232;2023-02-11T09:41:05;40.13;;;24.17;;
40653;SDS011;26344;45.532;9.232;2023-02-11T09:43:43;40.53;;;24.05;;
40653;SDS011;26344;45.532;9.232;2023-02-11T09:46:12;39.67;;;22.88;;
40653;SDS011;26344;45.532;9.232;2023-02-11T09:51:31;42.85;;;24.98;;
40653;SDS011;26344;45.532;9.232;2023-02-11T09:54:00;45.83;;;24.80;;
40653;SDS011;26344;45.532;9.232;2023-02-11T09:56:28;45.40;;;23.15;;
40653;SDS011;26344;45.532;9.232;2023-02-11T09:58:55;41.03;;;22.92;;
40653;SDS011;26344;45.532;9.232;2023-02-11T10:01:38;37.67;;;23.67;;
40653;SDS011;26344;45.532;9.232;2023-02-11T10:18:37;36.50;;;22.40;;
40653;SDS011;26344;45.532;9.232;2023-02-11T10:21:08;35.05;;;21.35;;
40653;SDS011;26344;45.532;9.232;2023-02-11T10:23:38;43.92;;;22.08;;
40653;SDS011;26344;45.532;9.232;2023-02-11T10:26:11;38.15;;;21.98;;
40653;SDS011;26344;45.532;9.232;2023-02-11T10:28:38;34.85;;;21.65;;
40653;SDS011;26344;45.532;9.232;2023-02-11T10:31:08;40.35;;;21.95;;
40653;SDS011;26344;45.532;9.232;2023-02-11T10:36:09;36.88;;;20.83;;
40653;SDS011;26344;45.532;9.232;2023-02-11T10:38:35;31.75;;;20.15;;
40653;SDS011;26344;45.532;9.232;2023-02-11T10:41:01;36.58;;;20.52;;
40653;SDS011;26344;45.532;9.232;2023-02-11T10:43:28;32.72;;;21.00;;
40653;SDS011;26344;45.532;9.232;2023-02-11T10:45:55;35.58;;;21.27;;
40653;SDS011;26344;45.532;9.232;2023-02-11T10:48:41;33.03;;;20.42;;
40653;SDS011;26344;45.532;9.232;2023-02-11T10:53:34;33.88;;;20.10;;
40653;SDS011;26344;45.532;9.232;2023-02-11T10:56:00;30.75;;;19.35;;
40653;SDS011;26344;45.532;9.232;2023-02-11T10:58:31;33.72;;;20.80;;
40653;SDS011;26344;45.532;9.232;2023-02-11T11:00:59;31.92;;;19.48;;
40653;SDS011;26344;45.532;9.232;2023-02-11T11:03:26;29.50;;;19.80;;
40653;SDS011;26344;45.532;9.232;2023-02-11T11:08:19;31.48;;;19.42;;
40653;SDS011;26344;45.532;9.232;2023-02-11T11:10:48;29.50;;;18.20;;
40653;SDS011;26344;45.532;9.232;2023-02-11T11:13:24;31.85;;;20.17;;
40653;SDS011;26344;45.532;9.232;2023-02-11T11:18:39;29.90;;;19.05;;
40653;SDS011;26344;45.532;9.232;2023-02-11T11:21:10;30.50;;;19.20;;
40653;SDS011;26344;45.532;9.232;2023-02-11T11:23:40;34.85;;;19.67;;
40653;SDS011;26344;45.532;9.232;2023-02-11T11:26:12;29.63;;;19.92;;
40653;SDS011;26344;45.532;9.232;2023-02-11T11:28:49;62.30;;;25.35;;
40653;SDS011;26344;45.532;9.232;2023-02-11T11:31:18;32.22;;;20.73;;
40653;SDS011;26344;45.532;9.232;2023-02-11T11:33:45;35.33;;;19.73;;
40653;SDS011;26344;45.532;9.232;2023-02-11T11:36:22;32.13;;;20.08;;
40653;SDS011;26344;45.532;9.232;2023-02-11T11:38:53;31.23;;;20.58;;
40653;SDS011;26344;45.532;9.232;2023-02-11T11:41:27;34.40;;;20.52;;
40653;SDS011;26344;45.532;9.232;2023-02-11T11:46:40;31.02;;;19.63;;
40653;SDS011;26344;45.532;9.232;2023-02-11T11:49:16;42.78;;;21.70;;
40653;SDS011;26344;45.532;9.232;2023-02-11T11:51:48;35.53;;;20.35;;
40653;SDS011;26344;45.532;9.232;2023-02-11T11:54:20;44.25;;;21.45;;
40653;SDS011;26344;45.532;9.232;2023-02-11T11:56:59;31.38;;;19.90;;
40653;SDS011;26344;45.532;9.232;2023-02-11T11:59:26;30.50;;;18.77;;
40653;SDS011;26344;45.532;9.232;2023-02-11T12:04:32;35.53;;;19.93;;
40653;SDS011;26344;45.532;9.232;2023-02-11T12:09:37;26.55;;;18.45;;
40653;SDS011;26344;45.532;9.232;2023-02-11T12:12:24;30.92;;;19.40;;
40653;SDS011;26344;45.532;9.232;2023-02-11T12:23:09;30.15;;;16.70;;
40653;SDS011;26344;45.532;9.232;2023-02-11T12:35:26;31.90;;;18.50;;
40653;SDS011;26344;45.532;9.232;2023-02-11T12:43:23;26.17;;;16.48;;
40653;SDS011;26344;45.532;9.232;2023-02-11T12:48:32;24.50;;;16.38;;
40653;SDS011;26344;45.532;9.232;2023-02-11T12:53:41;25.50;;;16.17;;
40653;SDS011;26344;45.532;9.232;2023-02-11T12:58:36;25.70;;;16.27;;
40653;SDS011;26344;45.532;9.232;2023-02-11T13:01:07;22.55;;;15.85;;
40653;SDS011;26344;45.532;9.232;2023-02-11T13:03:44;24.63;;;16.02;;
40653;SDS011;26344;45.532;9.232;2023-02-11T13:06:12;22.90;;;15.52;;
40653;SDS011;26344;45.532;9.232;2023-02-11T13:08:49;22.02;;;14.85;;
40653;SDS011;26344;45.532;9.232;2023-02-11T13:11:26;22.45;;;15.35;;
40653;SDS011;26344;45.532;9.232;2023-02-11T13:14:08;20.20;;;15.02;;
40653;SDS011;26344;45.532;9.232;2023-02-11T13:16:40;23.27;;;15.77;;
40653;SDS011;26344;45.532;9.232;2023-02-11T13:19:19;28.05;;;15.57;;
40653;SDS011;26344;45.532;9.232;2023-02-11T13:24:40;30.33;;;14.73;;
40653;SDS011;26344;45.532;9.232;2023-02-11T13:32:09;25.70;;;15.18;;
40653;SDS011;26344;45.532;9.232;2023-02-11T13:37:18;23.08;;;15.57;;
40653;SDS011;26344;45.532;9.232;2023-02-11T13:40:05;24.23;;;14.25;;
40653;SDS011;26344;45.532;9.232;2023-02-11T13:42:32;25.33;;;16.02;;
40653;SDS011;26344;45.532;9.232;2023-02-11T13:44:58;27.23;;;15.35;;
40653;SDS011;26344;45.532;9.232;2023-02-11T13:47:26;24.40;;;15.65;;
40653;SDS011;26344;45.532;9.232;2023-02-11T13:49:56;23.38;;;16.33;;
40653;SDS011;26344;45.532;9.232;2023-02-11T13:52:27;23.40;;;15.75;;
40653;SDS011;26344;45.532;9.232;2023-02-11T13:57:39;24.35;;;15.65;;
40653;SDS011;26344;45.532;9.232;2023-02-11T14:12:21;27.08;;;17.48;;
40653;SDS011;26344;45.532;9.232;2023-02-11T14:15:00;22.42;;;16.42;;
40653;SDS011;26344;45.532;9.232;2023-02-11T14:38:20;33.63;;;17.85;;
40653;SDS011;26344;45.532;9.232;2023-02-11T14:46:02;33.53;;;19.10;;
40653;SDS011;26344;45.532;9.232;2023-02-11T14:48:44;26.92;;;17.48;;
40653;SDS011;26344;45.532;9.232;2023-02-11T14:53:45;33.33;;;19.35;;
40653;SDS011;26344;45.532;9.232;2023-02-11T14:59:19;32.38;;;17.88;;
40653;SDS011;26344;45.532;9.232;2023-02-11T15:01:48;32.92;;;16.63;;
40653;SDS011;26344;45.532;9.232;2023-02-11T15:07:32;29.73;;;17.85;;
40653;SDS011;26344;45.532;9.232;2023-02-11T15:10:13;24.92;;;17.00;;
40653;SDS011;26344;45.532;9.232;2023-02-11T15:12:44;25.27;;;16.48;;
40653;SDS011;26344;45.532;9.232;2023-02-11T15:15:13;79.75;;;52.95;;
40653;SDS011;26344;45.532;9.232;2023-02-11T15:17:39;190.55;;;171.73;;
40653;SDS011;26344;45.532;9.232;2023-02-11T15:20:06;42.83;;;20.30;;
40653;SDS011;26344;45.532;9.232;2023-02-11T15:22:46;377.33;;;340.45;;
40653;SDS011;26344;45.532;9.232;2023-02-11T15:25:16;249.55;;;224.38;;
40653;SDS011;26344;45.532;9.232;2023-02-11T15:27:50;228.80;;;193.48;;
40653;SDS011;26344;45.532;9.232;2023-02-11T15:32:46;27.58;;;18.05;;
40653;SDS011;26344;45.532;9.232;2023-02-11T15:35:12;25.02;;;16.83;;
40653;SDS011;26344;45.532;9.232;2023-02-11T15:37:39;26.92;;;16.95;;
40653;SDS011;26344;45.532;9.232;2023-02-11T15:40:09;25.63;;;17.05;;
40653;SDS011;26344;45.532;9.232;2023-02-11T15:42:36;24.30;;;16.05;;
40653;SDS011;26344;45.532;9.232;2023-02-11T15:45:09;24.95;;;16.80;;
40653;SDS011;26344;45.532;9.232;2023-02-11T15:47:36;30.15;;;17.52;;
40653;SDS011;26344;45.532;9.232;2023-02-11T15:50:03;32.10;;;18.75;;
40653;SDS011;26344;45.532;9.232;2023-02-11T15:52:29;27.67;;;17.67;;
40653;SDS011;26344;45.532;9.232;2023-02-11T15:54:56;29.65;;;17.90;;
40653;SDS011;26344;45.532;9.232;2023-02-11T15:57:24;27.23;;;18.25;;
40653;SDS011;26344;45.532;9.232;2023-02-11T15:59:51;32.97;;;18.95;;
40653;SDS011;26344;45.532;9.232;2023-02-11T16:02:19;33.97;;;17.77;;
40653;SDS011;26344;45.532;9.232;2023-02-11T16:04:52;27.63;;;18.83;;
40653;SDS011;26344;45.532;9.232;2023-02-11T16:10:14;28.33;;;17.92;;
40653;SDS011;26344;45.532;9.232;2023-02-11T16:15:45;33.25;;;19.77;;
40653;SDS011;26344;45.532;9.232;2023-02-11T16:20:47;28.45;;;17.85;;
40653;SDS011;26344;45.532;9.232;2023-02-11T16:23:18;33.03;;;19.15;;
40653;SDS011;26344;45.532;9.232;2023-02-11T16:25:45;30.48;;;19.02;;
40653;SDS011;26344;45.532;9.232;2023-02-11T16:28:12;33.45;;;19.88;;
40653;SDS011;26344;45.532;9.232;2023-02-11T16:30:39;27.43;;;18.23;;
40653;SDS011;26344;45.532;9.232;2023-02-11T16:33:07;33.00;;;20.67;;
40653;SDS011;26344;45.532;9.232;2023-02-11T16:35:33;36.45;;;19.27;;
40653;SDS011;26344;45.532;9.232;2023-02-11T16:38:01;28.63;;;19.77;;
40653;SDS011;26344;45.532;9.232;2023-02-11T16:40:27;31.38;;;19.45;;
40653;SDS011;26344;45.532;9.232;2023-02-11T16:42:53;30.80;;;20.00;;
40653;SDS011;26344;45.532;9.232;2023-02-11T16:45:19;32.42;;;19.88;;
40653;SDS011;26344;45.532;9.232;2023-02-11T16:47:45;33.55;;;20.27;;
40653;SDS011;26344;45.532;9.232;2023-02-11T16:50:18;36.08;;;19.58;;
40653;SDS011;26344;45.532;9.232;2023-02-11T16:52:45;32.47;;;20.27;;
40653;SDS011;26344;45.532;9.232;2023-02-11T16:55:12;31.98;;;19.48;;
40653;SDS011;26344;45.532;9.232;2023-02-11T16:57:38;31.38;;;19.63;;
40653;SDS011;26344;45.532;9.232;2023-02-11T17:00:05;32.03;;;20.70;;
40653;SDS011;26344;45.532;9.232;2023-02-11T17:02:50;30.85;;;19.63;;
40653;SDS011;26344;45.532;9.232;2023-02-11T17:05:17;34.13;;;20.17;;
40653;SDS011;26344;45.532;9.232;2023-02-11T17:07:44;32.63;;;19.60;;
40653;SDS011;26344;45.532;9.232;2023-02-11T17:10:14;33.42;;;19.70;;
40653;SDS011;26344;45.532;9.232;2023-02-11T17:12:40;37.75;;;21.35;;
40653;SDS011;26344;45.532;9.232;2023-02-11T17:15:07;35.13;;;20.70;;
40653;SDS011;26344;45.532;9.232;2023-02-11T17:20:24;34.28;;;21.48;;
40653;SDS011;26344;45.532;9.232;2023-02-11T17:22:50;40.47;;;22.25;;
40653;SDS011;26344;45.532;9.232;2023-02-11T17:25:16;35.17;;;21.05;;
40653;SDS011;26344;45.532;9.232;2023-02-11T17:27:42;33.33;;;20.75;;
40653;SDS011;26344;45.532;9.232;2023-02-11T17:30:09;35.03;;;21.95;;
40653;SDS011;26344;45.532;9.232;2023-02-11T17:32:36;36.30;;;22.20;;
40653;SDS011;26344;45.532;9.232;2023-02-11T17:35:02;38.90;;;21.83;;
40653;SDS011;26344;45.532;9.232;2023-02-11T17:37:30;38.40;;;23.27;;
40653;SDS011;26344;45.532;9.232;2023-02-11T17:39:56;33.80;;;21.83;;
40653;SDS011;26344;45.532;9.232;2023-02-11T17:42:22;36.40;;;23.23;;